Time;durP1;ratioP1;P1;durP2;ratioP2;P2;SDS_P1;SDS_P2;PMS_P1;PMS_P2;Temp;Humidity;BMP_temperature;BMP_pressure;BME280_temperature;BME280_humidity;BME280_pressure;Samples;Min_cycle;Max_cycle;Signal;HPM_P1;HPM_P2
2022/09/15 00:00:47;;;;;;;2.97;2.73;;;;;;;-143.84;43.37;45009.09;5109931;28;20794;-72
2022/09/15 00:03:14;;;;;;;2.43;2.33;;;;;;;-143.84;43.30;45049.06;5109879;28;20435;-72
2022/09/15 00:05:42;;;;;;;3.50;2.07;;;;;;;-143.84;42.85;45012.88;5109846;28;20439;-71
2022/09/15 00:08:09;;;;;;;2.20;2.10;;;;;;;-143.84;43.04;45028.13;5108588;28;20471;-72
2022/09/15 00:10:37;;;;;;;2.30;2.20;;;;;;;-143.84;42.96;45037.66;5108393;28;20459;-72
2022/09/15 00:13:04;;;;;;;3.30;2.93;;;;;;;-143.84;42.79;45037.66;5108280;28;20431;-71
2022/09/15 00:15:31;;;;;;;3.73;2.57;;;;;;;-143.84;42.50;45031.94;5109379;28;20488;-72
2022/09/15 00:17:59;;;;;;;2.20;2.10;;;;;;;-143.84;42.45;45010.97;5109056;28;20442;-72
2022/09/15 00:20:26;;;;;;;2.93;2.70;;;;;;;-143.84;42.79;45028.13;5108951;28;20495;-72
2022/09/15 00:22:53;;;;;;;2.93;2.73;;;;;;;-143.84;42.65;45016.69;5109251;28;20488;-72
2022/09/15 00:25:20;;;;;;;2.90;2.70;;;;;;;-143.84;42.47;45024.31;5109255;28;20435;-72
2022/09/15 00:27:49;;;;;;;3.90;2.80;;;;;;;-143.84;42.64;45031.94;5108985;28;20941;-71
2022/09/15 00:30:16;;;;;;;8.77;2.60;;;;;;;-143.84;42.72;45001.47;5109034;28;20623;-71
2022/09/15 00:32:43;;;;;;;4.43;2.30;;;;;;;-143.84;42.61;45007.19;5109085;28;20486;-71
2022/09/15 00:35:11;;;;;;;2.50;2.40;;;;;;;-143.84;42.82;45020.50;5108885;28;20814;-71
2022/09/15 00:37:38;;;;;;;8.27;2.80;;;;;;;-143.84;42.71;45039.53;5109035;28;20470;-71
2022/09/15 00:40:06;;;;;;;2.90;2.57;;;;;;;-143.84;42.80;45026.22;5109071;28;20442;-72
2022/09/15 00:42:33;;;;;;;3.73;2.33;;;;;;;-143.84;42.76;45031.94;5109263;28;20435;-71
2022/09/15 00:45:03;;;;;;;3.03;2.63;;;;;;;-143.84;42.69;45037.66;5108973;28;20503;-71
2022/09/15 00:47:34;;;;;;;5.53;3.07;;;;;;;-143.84;42.67;45016.69;5108877;28;20443;-71
2022/09/15 00:50:05;;;;;;;4.10;2.73;;;;;;;-143.84;42.65;45041.44;5109423;28;20520;-71
2022/09/15 00:52:38;;;;;;;2.70;2.50;;;;;;;-143.84;42.35;45018.59;5108921;28;20443;-71
2022/09/15 00:55:09;;;;;;;3.03;2.60;;;;;;;-143.84;42.62;45033.84;5109358;28;20492;-73
2022/09/15 00:57:41;;;;;;;2.70;2.50;;;;;;;-143.84;42.30;45014.78;5109527;28;20442;-73
2022/09/15 01:00:12;;;;;;;3.00;2.70;;;;;;;-143.84;42.34;45037.66;5109100;28;20473;-73
2022/09/15 01:02:42;;;;;;;2.83;2.63;;;;;;;-143.84;42.28;45018.59;5109115;28;20496;-73
2022/09/15 01:05:12;;;;;;;6.80;2.80;;;;;;;-143.84;42.42;45041.44;5109014;28;20441;-73
2022/09/15 01:07:42;;;;;;;2.77;2.67;;;;;;;-143.84;42.06;45003.38;5109254;28;20464;-73
2022/09/15 01:10:14;;;;;;;16.43;3.03;;;;;;;-143.84;41.84;44997.66;5108221;28;20482;-73
2022/09/15 01:12:43;;;;;;;2.73;2.50;;;;;;;-143.84;41.80;45028.13;5109201;28;20438;-73
2022/09/15 01:15:11;;;;;;;4.50;2.80;;;;;;;-143.84;42.21;45024.31;5109102;28;20439;-73
2022/09/15 01:17:51;;;;;;;5.00;2.70;;;;;;;-143.84;41.96;45018.59;5108159;28;20431;-73
2022/09/15 01:20:46;;;;;;;4.90;2.40;;;;;;;-143.84;42.23;45014.78;5108455;28;20814;-73
2022/09/15 01:23:38;;;;;;;3.67;2.70;;;;;;;-143.84;42.10;45031.94;5108111;28;20547;-73
2022/09/15 01:26:41;;;;;;;2.63;2.43;;;;;;;-143.84;41.96;45014.78;5109048;28;20501;-73
2022/09/15 01:29:47;;;;;;;3.90;2.87;;;;;;;-143.84;41.91;45026.22;5108804;28;20470;-72
2022/09/15 01:35:17;;;;;;;4.10;2.77;;;;;;;-143.84;41.85;45016.69;5112702;28;20978;-72
2022/09/15 01:37:50;;;;;;;2.83;2.63;;;;;;;-143.84;41.67;45007.19;5111590;28;20679;-73
2022/09/15 01:40:20;;;;;;;4.37;2.90;;;;;;;-143.84;41.99;45020.50;5112404;28;20908;-73
2022/09/15 01:42:51;;;;;;;3.50;3.20;;;;;;;-143.84;42.04;45033.84;5112200;28;20435;-73
2022/09/15 01:45:23;;;;;;;3.13;2.90;;;;;;;-143.84;41.90;44999.56;5112226;28;20499;-73
2022/09/15 01:47:54;;;;;;;3.07;2.77;;;;;;;-143.84;41.85;45022.41;5112231;28;20503;-73
2022/09/15 01:50:24;;;;;;;8.13;2.80;;;;;;;-143.84;41.60;45020.50;5112112;28;21045;-72
2022/09/15 01:52:55;;;;;;;3.00;2.63;;;;;;;-143.84;41.74;45028.13;5111938;28;20819;-72
2022/09/15 01:55:26;;;;;;;6.63;2.40;;;;;;;-143.84;41.35;45014.78;5112116;28;20551;-72
2022/09/15 01:57:53;;;;;;;3.50;2.70;;;;;;;-143.84;41.20;45039.53;5112138;28;20460;-72
2022/09/15 02:00:23;;;;;;;2.80;2.60;;;;;;;-143.84;41.32;45020.50;5111899;28;20461;-72
2022/09/15 02:02:57;;;;;;;3.50;2.70;;;;;;;-143.84;41.15;45009.09;5111948;28;20508;-73
2022/09/15 02:05:32;;;;;;;2.67;2.47;;;;;;;-143.84;40.80;45020.50;5111619;28;20499;-72
2022/09/15 02:08:05;;;;;;;4.03;2.50;;;;;;;-143.84;40.83;45031.94;5111567;28;20430;-72
2022/09/15 02:10:39;;;;;;;3.20;2.90;;;;;;;-143.84;40.68;45039.53;5112061;28;20431;-73
2022/09/15 02:13:14;;;;;;;4.30;2.23;;;;;;;-143.84;40.29;45020.50;5111776;28;20967;-72
2022/09/15 02:15:47;;;;;;;2.83;2.63;;;;;;;-143.84;40.55;45020.50;5111492;28;20442;-72
2022/09/15 02:18:21;;;;;;;3.10;2.57;;;;;;;-143.84;40.14;45016.69;5112621;28;20439;-69
2022/09/15 02:20:57;;;;;;;7.23;2.50;;;;;;;-143.84;39.95;45010.97;5111935;28;20434;-69
2022/09/15 02:23:29;;;;;;;2.37;2.17;;;;;;;-143.84;39.88;45026.22;5111795;28;20442;-69
2022/09/15 02:26:03;;;;;;;2.90;2.70;;;;;;;-143.84;39.88;45022.41;5112116;28;21348;-69
2022/09/15 02:28:35;;;;;;;3.13;2.83;;;;;;;-143.84;39.72;45035.75;5112068;28;20543;-69
2022/09/15 02:31:08;;;;;;;2.80;2.60;;;;;;;-143.84;39.68;45033.84;5111782;28;20449;-69
2022/09/15 02:33:42;;;;;;;3.93;2.40;;;;;;;-143.84;39.92;45041.44;5110918;28;21072;-69
2022/09/15 02:36:13;;;;;;;4.57;2.63;;;;;;;-143.84;39.63;45037.66;5111096;28;20528;-69
2022/09/15 02:38:46;;;;;;;4.60;2.23;;;;;;;-143.84;39.69;45045.25;5111561;28;20933;-69
2022/09/15 02:41:13;;;;;;;3.53;2.00;;;;;;;-143.84;39.83;45024.31;5111487;28;20932;-69
2022/09/15 02:43:45;;;;;;;7.23;2.87;;;;;;;-143.84;39.43;45041.44;5110550;28;20439;-69
2022/09/15 02:46:15;;;;;;;3.50;2.33;;;;;;;-143.84;39.66;45026.22;5111370;28;20431;-69
2022/09/15 02:48:42;;;;;;;2.40;2.20;;;;;;;-143.84;39.60;45003.38;5111501;28;20557;-69
2022/09/15 02:51:09;;;;;;;2.60;2.40;;;;;;;-143.84;39.42;45022.41;5111623;28;20435;-69
2022/09/15 02:53:36;;;;;;;3.37;2.80;;;;;;;-143.84;39.63;45031.94;5111179;28;20905;-69
2022/09/15 02:56:04;;;;;;;3.97;2.10;;;;;;;-143.84;39.38;45024.31;5111683;28;20435;-69
2022/09/15 02:58:32;;;;;;;8.97;3.03;;;;;;;-143.84;39.56;45005.28;5111090;28;20492;-69
2022/09/15 03:01:02;;;;;;;4.00;2.33;;;;;;;-143.84;39.74;45007.19;5110853;28;20929;-69
2022/09/15 03:03:32;;;;;;;4.70;2.27;;;;;;;-143.84;39.44;45003.38;5111119;28;20566;-69
2022/09/15 03:06:15;;;;;;;5.40;3.70;;;;;;;-143.84;39.62;45022.41;5111095;28;20474;-69
2022/09/15 03:08:43;;;;;;;4.67;2.77;;;;;;;-143.84;39.51;45028.13;5111470;28;20536;-69
2022/09/15 03:11:10;;;;;;;5.47;2.87;;;;;;;-143.84;39.23;45007.19;5104568;28;20461;-71
2022/09/15 03:13:38;;;;;;;10.23;2.83;;;;;;;-143.84;39.53;45033.84;5109818;28;20464;-72
2022/09/15 03:16:08;;;;;;;8.60;2.80;;;;;;;-143.84;39.38;45020.50;5110149;28;20451;-70
2022/09/15 03:18:37;;;;;;;4.80;2.43;;;;;;;-143.84;39.27;45047.16;5110373;28;21052;-70
2022/09/15 03:21:07;;;;;;;12.53;2.73;;;;;;;-143.84;39.18;45007.19;5109369;28;20827;-69
2022/09/15 03:23:34;;;;;;;2.70;2.50;;;;;;;-143.84;39.10;45018.59;5106603;28;20451;-68
2022/09/15 03:26:02;;;;;;;4.10;2.40;;;;;;;-143.84;39.15;45014.78;5105871;28;20546;-68
2022/09/15 03:28:29;;;;;;;12.53;2.80;;;;;;;-143.84;39.07;45037.66;5109242;28;20512;-68
2022/09/15 03:30:57;;;;;;;3.33;3.10;;;;;;;-143.84;38.97;45026.22;5110115;28;20447;-71
2022/09/15 03:33:24;;;;;;;2.40;2.20;;;;;;;-143.84;38.82;45016.69;5109678;28;20507;-69
2022/09/15 03:35:53;;;;;;;5.23;2.60;;;;;;;-143.84;38.72;45035.75;5109577;28;20459;-68
2022/09/15 03:38:20;;;;;;;2.90;2.57;;;;;;;-143.84;38.77;45037.66;5109305;28;20451;-69
2022/09/15 03:40:57;;;;;;;5.33;3.37;;;;;;;-143.84;38.84;45028.13;5109551;28;20439;-69
2022/09/15 03:43:24;;;;;;;6.20;3.07;;;;;;;-143.84;38.89;45026.22;5109222;28;20450;-73
2022/09/15 03:45:51;;;;;;;7.60;3.37;;;;;;;-143.84;38.64;45022.41;5109909;28;20439;-73
2022/09/15 03:48:18;;;;;;;7.27;3.40;;;;;;;-143.84;38.95;45033.84;5110069;28;20439;-73
2022/09/15 03:50:46;;;;;;;10.03;4.23;;;;;;;-143.84;38.72;45028.13;5110164;28;20475;-74
2022/09/15 03:53:15;;;;;;;10.50;3.60;;;;;;;-143.84;39.00;45016.69;5108442;28;20435;-71
2022/09/15 03:55:42;;;;;;;15.17;2.80;;;;;;;-143.84;38.60;45010.97;5109230;28;20455;-72
2022/09/15 03:58:09;;;;;;;2.80;2.60;;;;;;;-143.84;38.73;45033.84;5110354;28;20442;-73
2022/09/15 04:00:37;;;;;;;9.67;2.80;;;;;;;-143.84;38.55;45030.03;5109087;28;20447;-72
2022/09/15 04:03:05;;;;;;;9.30;3.03;;;;;;;-143.84;38.63;45018.59;5109822;28;20431;-74
2022/09/15 04:05:32;;;;;;;13.53;2.83;;;;;;;-143.84;38.15;45018.59;5110625;28;20431;-73
2022/09/15 04:08:00;;;;;;;3.83;2.47;;;;;;;-143.84;38.29;45009.09;5110465;28;20419;-73
2022/09/15 04:10:28;;;;;;;6.00;2.40;;;;;;;-143.84;38.40;45010.97;5109827;28;20498;-73
2022/09/15 04:12:55;;;;;;;3.93;2.50;;;;;;;-143.84;37.87;45020.50;5109102;28;20446;-73
2022/09/15 04:15:23;;;;;;;9.53;2.50;;;;;;;-143.84;37.95;45035.75;5109790;28;20427;-73
2022/09/15 04:17:51;;;;;;;6.00;2.70;;;;;;;-143.84;37.78;45014.78;5109420;28;20492;-73
2022/09/15 04:20:18;;;;;;;6.83;2.57;;;;;;;-143.84;37.60;45010.97;5109578;28;20435;-73
2022/09/15 04:22:45;;;;;;;7.13;3.00;;;;;;;-143.84;37.50;45026.22;5108793;28;20435;-73
2022/09/15 04:25:12;;;;;;;13.20;3.07;;;;;;;-143.84;38.08;45001.47;5109404;28;20450;-74
2022/09/15 04:27:41;;;;;;;6.03;3.20;;;;;;;-143.84;37.81;45018.59;5108755;28;20853;-74
2022/09/15 04:30:09;;;;;;;13.23;3.70;;;;;;;-143.84;37.61;45016.69;5109935;28;20471;-73
2022/09/15 04:32:37;;;;;;;10.83;3.73;;;;;;;-143.84;37.44;44990.03;5109286;28;20441;-73
2022/09/15 04:35:05;;;;;;;9.27;3.40;;;;;;;-143.84;37.47;45001.47;5109886;28;21043;-72
2022/09/15 04:37:33;;;;;;;10.47;3.37;;;;;;;-143.84;37.23;44986.22;5109474;28;20434;-71
2022/09/15 04:40:00;;;;;;;7.40;2.83;;;;;;;-143.84;37.20;45005.28;5109575;28;20929;-71
2022/09/15 04:42:28;;;;;;;12.80;4.47;;;;;;;-143.84;37.01;45005.28;5108150;28;20541;-71
2022/09/15 04:44:56;;;;;;;17.73;4.40;;;;;;;-143.84;36.88;44993.84;5108870;28;20454;-71
2022/09/15 04:47:24;;;;;;;23.93;3.33;;;;;;;-143.84;36.95;45012.88;5109300;28;20431;-72
2022/09/15 04:49:51;;;;;;;12.17;4.13;;;;;;;-143.84;36.65;45010.97;5110095;28;20467;-70
2022/09/15 04:52:18;;;;;;;8.50;3.40;;;;;;;-143.84;36.21;45005.28;5109171;28;20428;-72
2022/09/15 04:54:46;;;;;;;13.00;4.17;;;;;;;-143.84;36.08;44990.03;5108825;28;20427;-73
2022/09/15 04:57:13;;;;;;;16.07;3.77;;;;;;;-143.84;35.83;44984.31;5108557;28;20529;-72
2022/09/15 04:59:40;;;;;;;10.77;3.80;;;;;;;-143.84;35.48;44995.75;5108970;28;20443;-72
2022/09/15 05:02:09;;;;;;;13.50;3.93;;;;;;;-143.84;35.33;44995.75;5108288;28;20451;-72
2022/09/15 05:04:36;;;;;;;17.13;4.20;;;;;;;-143.84;34.85;45037.66;5108652;28;20439;-72
2022/09/15 05:07:03;;;;;;;24.87;3.73;;;;;;;-143.84;34.85;44982.41;5110827;28;20431;-72
2022/09/15 05:09:30;;;;;;;12.97;3.90;;;;;;;-143.84;34.39;44988.13;5112189;28;20486;-72
2022/09/15 05:11:57;;;;;;;10.93;4.17;;;;;;;-143.84;34.19;44971.00;5112550;28;20442;-72
2022/09/15 05:14:25;;;;;;;15.57;4.63;;;;;;;-143.84;33.80;44978.63;5112602;28;20997;-72
2022/09/15 05:16:52;;;;;;;18.83;4.30;;;;;;;-143.84;34.11;44972.91;5112538;28;20443;-72
2022/09/15 05:19:21;;;;;;;22.63;3.70;;;;;;;-143.84;34.10;44978.63;5112292;28;20446;-72
2022/09/15 05:21:48;;;;;;;15.03;3.57;;;;;;;-143.84;33.79;44984.31;5112455;28;20481;-72
2022/09/15 05:24:15;;;;;;;18.87;3.17;;;;;;;-143.84;33.71;44965.28;5112599;28;20430;-72
2022/09/15 05:26:42;;;;;;;10.23;2.47;;;;;;;-143.84;33.59;44953.88;5111739;28;20449;-72
2022/09/15 05:29:09;;;;;;;3.37;1.90;;;;;;;-143.84;33.54;44978.63;5111806;28;20435;-72
2022/09/15 05:31:36;;;;;;;5.90;1.97;;;;;;;-143.84;33.34;44963.38;5112096;28;20439;-72
2022/09/15 05:34:06;;;;;;;14.07;2.50;;;;;;;-143.84;33.24;44967.19;5111969;28;20489;-72
2022/09/15 05:36:34;;;;;;;7.20;2.10;;;;;;;-143.84;33.14;44972.91;5112307;28;20512;-72
2022/09/15 05:39:02;;;;;;;3.93;2.43;;;;;;;-143.84;33.31;44984.31;5111934;28;20449;-72
2022/09/15 05:41:29;;;;;;;3.50;2.20;;;;;;;-143.84;33.06;44965.28;5112366;28;20807;-72
2022/09/15 05:43:58;;;;;;;4.93;2.20;;;;;;;-143.84;33.20;44982.41;5111979;28;20435;-72
2022/09/15 05:46:26;;;;;;;3.20;2.67;;;;;;;-143.84;32.94;44965.28;5111993;28;20435;-72
2022/09/15 05:48:55;;;;;;;6.20;2.37;;;;;;;-143.84;32.97;44938.63;5112024;28;20439;-72
2022/09/15 05:51:23;;;;;;;3.40;2.20;;;;;;;-143.84;33.53;44931.00;5112000;28;20466;-72
2022/09/15 05:53:51;;;;;;;4.13;1.57;;;;;;;-143.84;33.65;44967.19;5111526;28;20476;-72
2022/09/15 05:56:19;;;;;;;7.93;1.63;;;;;;;-143.84;33.08;44974.81;5111879;28;20439;-72
2022/09/15 05:58:48;;;;;;;12.23;3.10;;;;;;;-143.84;33.03;44959.56;5111326;28;20481;-72
2022/09/15 06:01:17;;;;;;;17.80;3.90;;;;;;;-143.84;33.33;44980.53;5111448;28;20821;-72
2022/09/15 06:03:46;;;;;;;9.33;3.23;;;;;;;-143.84;33.24;44969.09;5111758;28;20499;-72
2022/09/15 06:06:13;;;;;;;5.30;2.17;;;;;;;-143.84;33.36;44961.47;5111513;28;20563;-72
2022/09/15 06:08:44;;;;;;;7.73;2.50;;;;;;;-143.84;33.07;44948.16;5111565;28;20852;-72
2022/09/15 06:11:14;;;;;;;3.43;2.60;;;;;;;-143.84;33.04;44971.00;5111418;28;20483;-72
2022/09/15 06:13:41;;;;;;;4.43;2.97;;;;;;;-143.84;33.23;44955.75;5111385;28;20492;-72
2022/09/15 06:16:10;;;;;;;7.80;2.40;;;;;;;-143.84;33.42;44969.09;5111344;28;20492;-72
2022/09/15 06:18:38;;;;;;;4.23;2.20;;;;;;;-143.84;33.45;44984.31;5111410;28;20511;-72
2022/09/15 06:21:08;;;;;;;20.00;3.60;;;;;;;-143.84;33.58;44984.31;5111511;28;20435;-72
2022/09/15 06:23:36;;;;;;;21.07;3.40;;;;;;;-143.84;33.52;44950.06;5111415;28;20535;-72
2022/09/15 06:26:08;;;;;;;17.93;3.40;;;;;;;-143.84;33.37;44946.25;5111130;28;20438;-72
2022/09/15 06:28:37;;;;;;;7.13;3.00;;;;;;;-143.84;33.68;44965.28;5111294;28;20515;-72
2022/09/15 06:31:05;;;;;;;9.67;3.47;;;;;;;-143.84;33.29;44951.97;5111198;28;20512;-72
2022/09/15 06:33:32;;;;;;;11.13;3.43;;;;;;;-143.84;33.69;44969.09;5111298;28;20573;-73
2022/09/15 06:36:02;;;;;;;19.83;3.80;;;;;;;-143.84;33.40;44955.75;5111337;28;20496;-73
2022/09/15 06:38:30;;;;;;;7.67;3.10;;;;;;;-143.84;33.60;44972.91;5111493;28;20430;-73
2022/09/15 06:40:58;;;;;;;6.90;2.80;;;;;;;-143.84;33.51;44955.75;5111533;28;20441;-73
2022/09/15 06:43:26;;;;;;;16.63;3.30;;;;;;;-143.84;33.69;44969.09;5111450;28;20952;-73
2022/09/15 06:46:02;;;;;;;4.97;2.87;;;;;;;-143.84;33.52;44961.47;5111303;28;20427;-73
2022/09/15 06:48:30;;;;;;;3.70;2.63;;;;;;;-143.84;33.77;44953.88;5111423;28;20960;-73
2022/09/15 06:50:58;;;;;;;13.03;3.07;;;;;;;-143.84;33.80;44972.91;5110861;28;20474;-73
2022/09/15 06:53:25;;;;;;;8.57;3.30;;;;;;;-143.84;33.23;44953.88;5110185;28;20960;-73
2022/09/15 06:55:52;;;;;;;10.60;3.43;;;;;;;-143.84;33.78;44959.56;5110507;28;20435;-73
2022/09/15 06:58:20;;;;;;;6.63;3.60;;;;;;;-143.84;33.70;44946.25;5110738;28;20500;-73
2022/09/15 07:00:47;;;;;;;4.93;2.77;;;;;;;-143.84;33.74;44961.47;5111077;28;20439;-73
2022/09/15 07:03:15;;;;;;;6.37;2.93;;;;;;;-143.84;33.38;44950.06;5110841;28;20443;-73
2022/09/15 07:05:45;;;;;;;7.63;3.13;;;;;;;-143.84;33.64;44921.50;5111331;28;20500;-73
2022/09/15 07:08:13;;;;;;;13.30;3.30;;;;;;;-143.84;33.45;44965.28;5110955;28;20522;-73
2022/09/15 07:10:44;;;;;;;12.53;3.30;;;;;;;-143.84;33.44;44938.63;5110850;28;20481;-73
2022/09/15 07:13:11;;;;;;;16.63;3.30;;;;;;;-143.84;33.54;44942.44;5110993;28;20518;-73
2022/09/15 07:15:39;;;;;;;5.47;3.63;;;;;;;-143.84;33.41;44959.56;5110911;28;20500;-73
2022/09/15 07:18:06;;;;;;;14.97;3.60;;;;;;;-143.84;33.03;44955.75;5110581;28;20880;-73
2022/09/15 07:20:39;;;;;;;14.43;3.87;;;;;;;-143.84;33.11;44934.81;5111049;28;20435;-73
2022/09/15 07:23:06;;;;;;;8.70;3.40;;;;;;;-143.84;32.68;44934.81;5110959;28;20508;-73
2022/09/15 07:25:33;;;;;;;10.53;3.67;;;;;;;-143.84;33.30;44942.44;5110498;28;20431;-73
2022/09/15 07:28:01;;;;;;;11.13;3.47;;;;;;;-143.84;32.85;44931.00;5110490;28;20807;-73
2022/09/15 07:30:28;;;;;;;9.73;3.73;;;;;;;-143.84;32.86;44955.75;5109693;28;20474;-73
2022/09/15 07:32:55;;;;;;;9.37;3.30;;;;;;;-143.84;33.10;44915.78;5110459;28;20487;-73
2022/09/15 07:35:23;;;;;;;12.63;3.97;;;;;;;-143.84;32.79;44911.97;5110577;28;20457;-73
2022/09/15 07:37:52;;;;;;;17.27;3.50;;;;;;;-143.84;32.62;44891.03;5110489;28;20508;-73
2022/09/15 07:40:19;;;;;;;12.43;3.77;;;;;;;-143.84;32.71;44908.16;5110507;28;20462;-73
2022/09/15 07:42:46;;;;;;;14.57;2.87;;;;;;;-143.84;32.34;44908.16;5110207;28;20924;-73
2022/09/15 07:45:14;;;;;;;17.13;3.13;;;;;;;-143.84;33.02;44911.97;5110126;28;20438;-73
2022/09/15 07:47:41;;;;;;;11.80;3.47;;;;;;;-143.84;32.54;44944.34;5110415;28;20453;-73
2022/09/15 07:50:08;;;;;;;8.43;3.63;;;;;;;-143.84;32.16;44908.16;5110208;28;20443;-73
2022/09/15 07:52:35;;;;;;;17.93;4.50;;;;;;;-143.84;32.69;44911.97;5110097;28;20439;-73
2022/09/15 07:55:04;;;;;;;7.93;3.10;;;;;;;-143.84;32.76;44875.78;5109930;28;20442;-73
2022/09/15 07:57:32;;;;;;;11.50;3.43;;;;;;;-143.84;32.40;44892.94;5109981;28;20528;-73
2022/09/15 07:59:59;;;;;;;11.70;3.57;;;;;;;-143.84;32.02;44910.06;5110084;28;20438;-73
2022/09/15 08:02:26;;;;;;;7.63;3.70;;;;;;;-143.84;31.98;44891.03;5109694;28;20439;-73
2022/09/15 08:04:53;;;;;;;11.13;3.27;;;;;;;-143.84;31.64;44889.13;5109957;28;20439;-73
2022/09/15 08:07:20;;;;;;;10.90;3.67;;;;;;;-143.84;31.59;44889.13;5109848;28;20477;-73
2022/09/15 08:09:47;;;;;;;13.03;3.20;;;;;;;-143.84;31.95;44879.59;5109888;28;20439;-73
2022/09/15 08:12:16;;;;;;;7.27;2.80;;;;;;;-143.84;32.50;44908.16;5109315;28;20508;-73
2022/09/15 08:14:43;;;;;;;6.47;3.37;;;;;;;-143.84;31.60;44885.31;5108541;28;20443;-73
2022/09/15 08:17:11;;;;;;;6.67;2.87;;;;;;;-143.84;31.46;44898.66;5109442;28;20876;-69
2022/09/15 08:19:38;;;;;;;9.93;3.50;;;;;;;-143.84;31.42;44896.75;5109187;28;20434;-70
2022/09/15 08:22:05;;;;;;;13.33;3.10;;;;;;;-143.84;31.54;44889.13;5109840;28;20447;-70
2022/09/15 08:24:32;;;;;;;5.27;2.73;;;;;;;-143.84;31.25;44877.69;5109149;28;20430;-70
2022/09/15 08:26:59;;;;;;;11.13;3.37;;;;;;;-143.84;31.20;44885.31;5109436;28;20441;-70
2022/09/15 08:29:28;;;;;;;5.83;3.00;;;;;;;-143.84;31.18;44885.31;5109772;28;20439;-70
2022/09/15 08:31:55;;;;;;;7.93;3.70;;;;;;;-143.84;31.68;44854.84;5109822;28;20551;-70
2022/09/15 08:34:23;;;;;;;4.00;3.60;;;;;;;-143.84;30.81;44856.75;5109231;28;20491;-70
2022/09/15 08:36:50;;;;;;;5.50;3.50;;;;;;;-143.84;30.67;44870.09;5109405;28;20435;-70
2022/09/15 08:39:17;;;;;;;9.93;4.17;;;;;;;-143.84;30.97;44883.41;5109315;28;20861;-70
2022/09/15 08:41:49;;;;;;;20.23;5.10;;;;;;;-143.84;31.73;44851.03;5111396;28;20842;-70
2022/09/15 08:44:31;;;;;;;6.70;2.93;;;;;;;-143.84;30.84;44851.03;5113528;28;20447;-70
2022/09/15 08:47:05;;;;;;;4.87;2.63;;;;;;;-143.84;30.78;44854.84;5113241;28;20906;-70
2022/09/15 08:49:40;;;;;;;6.13;3.50;;;;;;;-143.84;30.88;44828.19;5113462;28;21265;-72
2022/09/15 08:52:14;;;;;;;19.10;3.00;;;;;;;-143.84;31.12;44847.22;5113361;28;21091;-73
2022/09/15 08:54:41;;;;;;;14.90;3.57;;;;;;;-143.84;30.78;44843.44;5113012;28;20439;-73
2022/09/15 08:57:18;;;;;;;6.10;3.90;;;;;;;-143.84;30.35;44832.00;5112103;28;20435;-73
2022/09/15 08:59:45;;;;;;;10.70;4.20;;;;;;;-143.84;30.34;44852.94;5112297;28;20845;-73
2022/09/15 09:02:48;;;;;;;6.53;3.10;;;;;;;-143.84;30.25;44835.81;5112438;28;20446;-73
2022/09/15 09:05:44;;;;;;;7.00;2.80;;;;;;;-143.84;30.21;44837.72;5109493;28;20442;-73
2022/09/15 09:08:40;;;;;;;3.00;2.27;;;;;;;-143.84;29.94;44849.13;5112709;28;20443;-73
2022/09/15 09:11:17;;;;;;;10.03;2.40;;;;;;;-143.84;30.55;44805.34;5112927;28;20493;-73
2022/09/15 09:13:52;;;;;;;8.50;2.20;;;;;;;-143.84;30.73;44839.63;5112831;28;20437;-73
2022/09/15 09:16:47;;;;;;;8.20;2.70;;;;;;;-143.84;30.85;44833.91;5112792;28;20441;-73
2022/09/15 09:19:40;;;;;;;9.20;2.00;;;;;;;-143.84;30.35;44788.22;5112598;28;20455;-73
2022/09/15 09:22:12;;;;;;;6.83;1.47;;;;;;;-143.84;29.89;44833.91;5112898;28;20430;-73
2022/09/15 09:24:43;;;;;;;12.13;2.80;;;;;;;-143.84;30.38;44818.66;5112747;28;20435;-73
2022/09/15 09:27:14;;;;;;;6.70;2.10;;;;;;;-143.84;30.24;44816.78;5112777;28;20524;-73
2022/09/15 09:29:48;;;;;;;4.23;1.90;;;;;;;-143.84;30.60;44839.63;5112833;28;20430;-73
2022/09/15 09:32:20;;;;;;;13.13;2.23;;;;;;;-143.84;29.73;44812.97;5112482;28;20551;-73
2022/09/15 09:34:54;;;;;;;5.43;1.93;;;;;;;-143.84;30.09;44818.66;5112594;28;20477;-73
2022/09/15 09:37:23;;;;;;;8.83;1.97;;;;;;;-143.84;30.78;44774.88;5112552;28;20483;-73
2022/09/15 09:39:50;;;;;;;3.73;1.90;;;;;;;-143.84;29.56;44793.91;5112513;28;20458;-73
2022/09/15 09:42:19;;;;;;;15.63;2.23;;;;;;;-143.84;29.86;44839.63;5113076;28;20439;-70
2022/09/15 09:44:47;;;;;;;15.90;2.57;;;;;;;-143.84;29.84;44771.06;5112782;28;20439;-72
2022/09/15 09:47:14;;;;;;;10.73;2.00;;;;;;;-143.84;29.73;44755.84;5112501;28;20446;-70
2022/09/15 09:49:45;;;;;;;14.27;2.13;;;;;;;-143.84;29.21;44795.81;5113062;28;20438;-73
2022/09/15 09:52:13;;;;;;;10.77;2.00;;;;;;;-143.84;29.52;44780.59;5111615;28;20474;-73
2022/09/15 09:54:41;;;;;;;11.83;1.97;;;;;;;-143.84;29.33;44795.81;5112034;28;20523;-73
2022/09/15 09:57:27;;;;;;;19.20;1.90;;;;;;;-143.84;29.48;44792.00;5111751;28;20443;-73
2022/09/15 09:59:54;;;;;;;6.33;2.03;;;;;;;-143.84;30.33;44776.78;5112189;28;20960;-73
2022/09/15 10:02:23;;;;;;;12.47;2.00;;;;;;;-143.84;28.97;44742.50;5111871;28;20447;-73
2022/09/15 10:04:53;;;;;;;20.07;2.50;;;;;;;-143.84;29.16;44790.13;5111834;28;20449;-73
2022/09/15 10:07:23;;;;;;;10.73;2.40;;;;;;;-143.84;29.29;44763.47;5111929;28;20431;-73
2022/09/15 10:09:57;;;;;;;10.83;2.33;;;;;;;-143.84;28.40;44788.22;5112005;28;20482;-73
2022/09/15 10:12:31;;;;;;;8.30;3.27;;;;;;;-143.84;28.28;44797.72;5111747;28;20470;-73
2022/09/15 10:15:01;;;;;;;10.53;2.43;;;;;;;-143.84;28.57;44771.06;5111647;28;20439;-73
2022/09/15 10:17:40;;;;;;;14.87;3.37;;;;;;;-143.84;28.90;44727.28;5111962;28;20952;-73
2022/09/15 10:20:23;;;;;;;11.90;3.30;;;;;;;-143.84;28.27;44759.66;5111926;28;20874;-73
2022/09/15 10:22:50;;;;;;;17.60;2.30;;;;;;;-143.84;28.91;44782.50;5111342;28;20455;-73
2022/09/15 10:25:35;;;;;;;28.90;5.37;;;;;;;-143.84;28.70;44790.13;5111157;28;20439;-74
2022/09/15 10:28:11;;;;;;;57.87;14.23;;;;;;;-143.84;29.00;44774.88;5111812;28;20458;-74
2022/09/15 10:30:39;;;;;;;9.67;2.83;;;;;;;-143.84;28.82;44753.94;5111741;28;20839;-73
2022/09/15 10:33:23;;;;;;;15.23;4.13;;;;;;;-143.84;28.67;44742.50;5111340;28;20502;-74
2022/09/15 10:35:50;;;;;;;10.83;3.50;;;;;;;-143.84;28.55;44750.13;5110564;28;20520;-73
2022/09/15 10:38:22;;;;;;;15.00;3.13;;;;;;;-143.84;28.25;44746.31;5111014;28;20936;-73
2022/09/15 10:40:56;;;;;;;8.37;2.40;;;;;;;-143.84;28.82;44750.13;5110841;28;21304;-73
2022/09/15 10:43:36;;;;;;;9.60;2.13;;;;;;;-143.84;28.56;44748.22;5111464;28;20443;-73
2022/09/15 10:46:12;;;;;;;11.57;2.47;;;;;;;-143.84;28.35;44736.81;5111268;28;20435;-73
2022/09/15 10:48:52;;;;;;;11.17;2.90;;;;;;;-143.84;28.24;44742.50;5110961;28;20585;-73
2022/09/15 10:51:35;;;;;;;12.70;3.00;;;;;;;-143.84;28.79;44740.59;5109836;28;21376;-73
2022/09/15 10:54:24;;;;;;;12.20;2.90;;;;;;;-143.84;29.04;44753.94;5110592;28;20439;-73
2022/09/15 10:57:01;;;;;;;18.00;4.20;;;;;;;-143.84;28.41;44763.47;5108662;28;20446;-74
2022/09/15 10:59:43;;;;;;;20.80;4.10;;;;;;;-143.84;29.07;44752.03;5110368;28;20968;-73
2022/09/15 11:02:32;;;;;;;11.23;2.67;;;;;;;-143.84;29.01;44761.56;5109745;28;20561;-73
2022/09/15 11:05:17;;;;;;;13.83;3.40;;;;;;;-143.84;28.50;44774.88;5108462;28;20530;-73
2022/09/15 11:07:54;;;;;;;13.60;2.47;;;;;;;-143.84;28.05;44746.31;5107300;28;20443;-74
2022/09/15 11:10:29;;;;;;;15.03;3.70;;;;;;;-143.84;28.54;44736.81;5107930;28;20446;-74
2022/09/15 11:13:12;;;;;;;7.47;2.90;;;;;;;-143.84;27.89;44753.94;5109513;28;20559;-74
2022/09/15 11:15:53;;;;;;;20.83;2.73;;;;;;;-143.84;27.78;44713.94;5109229;28;20455;-74
2022/09/15 11:18:39;;;;;;;19.27;3.20;;;;;;;-143.84;28.30;44761.56;5107400;28;20562;-73
2022/09/15 11:21:20;;;;;;;18.23;4.10;;;;;;;-143.84;28.73;44744.41;5109725;28;20465;-73
2022/09/15 11:23:55;;;;;;;11.47;3.80;;;;;;;-143.84;28.10;44759.66;5109470;28;20453;-73
2022/09/15 11:26:29;;;;;;;15.40;3.70;;;;;;;-143.84;28.24;44731.09;5109769;28;20450;-73
2022/09/15 11:29:03;;;;;;;13.93;3.33;;;;;;;-143.84;27.56;44702.53;5109047;28;20451;-73
2022/09/15 11:31:34;;;;;;;12.47;3.73;;;;;;;-143.84;27.93;44717.75;5109547;28;20577;-73
2022/09/15 11:34:06;;;;;;;12.93;3.33;;;;;;;-143.84;27.74;44721.56;5107551;28;20483;-73